createdAt,value
2023-07-10T00:01:25.791Z,23.88
2023-07-10T00:03:57.464Z,23.80
2023-07-10T00:06:29.317Z,23.82
2023-07-10T00:09:00.817Z,23.74
2023-07-10T00:11:32.627Z,23.73
2023-07-10T00:14:04.168Z,23.69
2023-07-10T00:16:35.708Z,23.64
2023-07-10T00:19:07.211Z,23.47
2023-07-10T00:21:38.725Z,23.43
2023-07-10T00:24:10.607Z,23.34
2023-07-10T00:26:42.122Z,23.39
2023-07-10T00:29:13.930Z,23.46
2023-07-10T00:31:45.406Z,23.50
2023-07-10T00:34:17.221Z,23.49
2023-07-10T00:36:48.716Z,23.51
2023-07-10T00:39:20.508Z,23.53
2023-07-10T00:41:52.007Z,23.43
2023-07-10T00:44:23.782Z,23.35
2023-07-10T00:46:55.348Z,23.31
2023-07-10T00:49:26.887Z,23.35
2023-07-10T00:51:58.362Z,23.34
2023-07-10T00:54:30.175Z,23.24
2023-07-10T00:57:02.021Z,23.20
2023-07-10T00:59:33.981Z,23.07
2023-07-10T01:02:05.932Z,22.95
2023-07-10T01:04:37.461Z,22.95
2023-07-10T01:07:09.276Z,22.92
2023-07-10T01:09:40.786Z,22.97
2023-07-10T01:12:12.622Z,23.02
2023-07-10T01:14:44.114Z,23.11
2023-07-10T01:17:15.913Z,23.11
2023-07-10T01:19:47.393Z,23.04
2023-07-10T01:22:19.070Z,23.04
2023-07-10T01:24:50.596Z,23.06
2023-07-10T01:27:22.408Z,23.15
2023-07-10T01:29:53.950Z,23.19
2023-07-10T01:32:26.451Z,23.23
2023-07-10T01:34:58.007Z,23.23
2023-07-10T01:37:29.507Z,23.22
2023-07-10T01:40:01.411Z,23.24
2023-07-10T01:42:32.921Z,23.12
2023-07-10T01:45:04.704Z,23.13
2023-07-10T01:47:36.291Z,23.10
2023-07-10T01:50:08.123Z,23.10
2023-07-10T01:52:39.613Z,22.99
2023-07-10T01:55:11.266Z,22.86
2023-07-10T01:57:42.755Z,22.79
2023-07-10T02:00:14.571Z,22.72
2023-07-10T02:02:46.142Z,22.71
2023-07-10T02:05:18.010Z,22.66
2023-07-10T02:07:49.538Z,22.66
2023-07-10T02:10:26.473Z,22.65
2023-07-10T02:13:04.162Z,22.65
2023-07-10T02:15:36.124Z,22.59
2023-07-10T02:18:08.019Z,22.62
2023-07-10T02:20:39.545Z,22.59
2023-07-10T02:23:11.275Z,22.62
2023-07-10T02:25:43.188Z,22.68
2023-07-10T02:28:15.430Z,22.65
2023-07-10T02:30:46.922Z,22.61
2023-07-10T02:33:18.734Z,22.63
2023-07-10T02:35:50.239Z,22.63
2023-07-10T02:38:21.735Z,22.66
2023-07-10T02:40:53.218Z,22.64
2023-07-10T02:43:24.717Z,22.68
2023-07-10T02:45:56.241Z,22.68
2023-07-10T02:48:28.060Z,22.69
2023-07-10T02:50:59.754Z,22.61
2023-07-10T02:53:31.617Z,22.57
2023-07-10T02:56:03.519Z,22.27
2023-07-10T02:58:35.269Z,22.51
2023-07-10T03:01:07.335Z,22.44
2023-07-10T03:03:38.851Z,22.42
2023-07-10T03:06:10.909Z,22.35
2023-07-10T03:08:42.404Z,22.28
2023-07-10T03:11:14.231Z,22.25
2023-07-10T03:13:45.768Z,22.26
2023-07-10T03:16:17.550Z,22.25
2023-07-10T03:18:49.123Z,22.24
2023-07-10T03:21:20.944Z,22.29
2023-07-10T03:23:52.445Z,22.26
2023-07-10T03:26:24.446Z,22.28
2023-07-10T03:28:55.948Z,22.24
2023-07-10T03:31:27.750Z,22.18
2023-07-10T03:33:59.235Z,22.17
2023-07-10T03:36:31.078Z,22.18
2023-07-10T03:39:02.592Z,22.11
2023-07-10T03:41:34.547Z,22.16
2023-07-10T03:44:06.144Z,22.19
2023-07-10T03:46:37.742Z,22.19
2023-07-10T03:49:09.282Z,22.18
2023-07-10T03:51:41.074Z,22.12
2023-07-10T03:54:12.573Z,22.17
2023-07-10T03:56:44.093Z,22.13
2023-07-10T03:59:15.581Z,22.12
2023-07-10T04:01:47.342Z,22.17
2023-07-10T04:04:19.036Z,22.13
2023-07-10T04:06:52.543Z,22.13
2023-07-10T04:09:24.293Z,22.09
2023-07-10T04:11:56.099Z,22.12
2023-07-10T04:14:27.618Z,22.17
2023-07-10T04:16:59.524Z,22.27
2023-07-10T04:19:31.035Z,22.31
2023-07-10T04:22:02.818Z,22.49
2023-07-10T04:24:36.477Z,22.49
2023-07-10T04:27:08.626Z,22.60
2023-07-10T04:29:40.121Z,22.67
2023-07-10T04:32:11.867Z,22.72
2023-07-10T04:34:43.364Z,22.91
2023-07-10T04:37:15.121Z,23.03
2023-07-10T04:39:46.604Z,23.16
2023-07-10T04:42:18.435Z,23.31
2023-07-10T04:44:49.941Z,23.55
2023-07-10T04:47:21.529Z,23.74
2023-07-10T04:49:53.078Z,24.08
2023-07-10T04:52:24.862Z,24.21
2023-07-10T04:54:56.370Z,23.93
2023-07-10T04:57:28.194Z,23.67
2023-07-10T04:59:59.690Z,23.45
2023-07-10T05:02:31.681Z,23.79
2023-07-10T05:05:03.374Z,23.79
2023-07-10T05:07:35.243Z,23.72
2023-07-10T05:10:06.739Z,23.57
2023-07-10T05:12:38.313Z,23.22
2023-07-10T05:15:09.798Z,23.21
2023-07-10T05:17:41.566Z,23.12
2023-07-10T05:20:13.108Z,22.82
2023-07-10T05:22:44.922Z,22.61
2023-07-10T05:25:16.430Z,21.98
2023-07-10T05:27:48.348Z,20.98
2023-07-10T05:30:19.839Z,20.60
2023-07-10T05:32:51.634Z,20.80
2023-07-10T05:35:23.113Z,20.48
2023-07-10T05:37:55.019Z,20.56
2023-07-10T05:40:26.502Z,20.61
2023-07-10T05:42:58.269Z,20.58
2023-07-10T05:45:29.790Z,20.70
2023-07-10T05:48:01.866Z,20.70
2023-07-10T05:50:33.392Z,20.68
2023-07-10T05:53:05.436Z,20.54
2023-07-10T05:55:36.945Z,20.39
2023-07-10T05:58:08.903Z,20.17
2023-07-10T06:00:40.400Z,19.80
2023-07-10T06:03:13.520Z,19.65
2023-07-10T06:05:45.015Z,19.56
2023-07-10T06:08:16.887Z,19.46
2023-07-10T06:10:48.373Z,19.40
2023-07-10T06:13:20.316Z,19.35
2023-07-10T06:15:51.881Z,19.36
2023-07-10T06:18:23.569Z,19.40
2023-07-10T06:20:55.051Z,19.27
2023-07-10T06:23:26.818Z,19.39
2023-07-10T06:25:58.329Z,19.59
2023-07-10T06:28:30.122Z,19.76
2023-07-10T06:31:01.732Z,19.90
2023-07-10T06:33:33.639Z,20.11
2023-07-10T06:36:05.339Z,20.24
2023-07-10T06:38:37.371Z,20.41
2023-07-10T06:41:09.008Z,20.47
2023-07-10T06:43:40.833Z,20.70
2023-07-10T06:46:12.372Z,20.96
2023-07-10T06:48:44.177Z,21.05
2023-07-10T06:51:15.682Z,21.32
2023-07-10T06:53:47.455Z,21.58
2023-07-10T06:56:18.979Z,21.81
2023-07-10T06:58:50.764Z,22.00
2023-07-10T07:01:22.355Z,22.37
2023-07-10T07:03:54.140Z,22.67
2023-07-10T07:06:25.739Z,22.87
2023-07-10T07:08:57.444Z,22.91
2023-07-10T07:11:28.959Z,22.95
2023-07-10T07:14:00.836Z,22.84
2023-07-10T07:16:32.400Z,22.83
2023-07-10T07:19:11.674Z,23.02
2023-07-10T07:21:44.154Z,22.75
2023-07-10T07:24:15.938Z,22.82
2023-07-10T07:26:47.478Z,22.74
2023-07-10T07:29:19.725Z,23.09
2023-07-10T07:31:51.217Z,23.39
2023-07-10T07:34:22.730Z,23.52
2023-07-10T07:36:54.224Z,24.15
2023-07-10T07:39:26.140Z,24.59
2023-07-10T07:41:57.651Z,24.58
2023-07-10T07:44:29.488Z,24.87
2023-07-10T07:47:01.083Z,25.50
2023-07-10T07:49:32.620Z,25.38
2023-07-10T07:52:04.144Z,25.67
2023-07-10T07:54:35.843Z,26.19
2023-07-10T07:57:07.337Z,26.39
2023-07-10T07:59:38.856Z,26.81
2023-07-10T08:02:10.391Z,26.54
2023-07-10T08:04:44.367Z,26.84
2023-07-10T08:07:15.942Z,27.26
2023-07-10T08:09:47.726Z,27.37
2023-07-10T08:12:19.225Z,27.81
2023-07-10T08:14:51.125Z,28.08
2023-07-10T08:17:22.661Z,28.13
2023-07-10T08:19:54.811Z,28.46
2023-07-10T08:22:26.347Z,28.74
2023-07-10T08:24:58.297Z,28.78
2023-07-10T08:27:30.127Z,29.00
2023-07-10T08:30:01.977Z,28.47
2023-07-10T08:32:33.741Z,29.12
2023-07-10T08:35:05.261Z,29.44
2023-07-10T08:37:37.213Z,29.56
2023-07-10T08:40:08.750Z,29.24
2023-07-10T08:42:40.251Z,28.98
2023-07-10T08:45:11.753Z,29.65
2023-07-10T08:47:43.561Z,29.55
2023-07-10T08:50:15.094Z,29.53
2023-07-10T08:52:46.624Z,28.77
2023-07-10T08:55:18.309Z,28.76
2023-07-10T08:57:50.279Z,28.76
2023-07-10T09:00:22.264Z,29.74
2023-07-10T09:02:53.787Z,29.59
2023-07-10T09:05:25.650Z,29.88
2023-07-10T09:07:57.151Z,30.08
2023-07-10T09:10:29.013Z,30.05
2023-07-10T09:13:00.541Z,29.82
2023-07-10T09:15:34.088Z,30.50
2023-07-10T09:18:07.458Z,30.43
2023-07-10T09:20:38.996Z,29.50
2023-07-10T09:23:10.749Z,30.14
2023-07-10T09:25:42.266Z,30.28
2023-07-10T09:28:13.810Z,30.37
2023-07-10T09:30:45.307Z,31.29
2023-07-10T09:33:17.205Z,31.41
2023-07-10T09:35:48.731Z,30.91
2023-07-10T09:38:20.542Z,29.91
2023-07-10T09:40:52.129Z,30.46
2023-07-10T09:43:24.082Z,31.42
2023-07-10T09:45:55.660Z,31.91
2023-07-10T09:48:27.596Z,31.76
2023-07-10T09:50:59.480Z,31.58
2023-07-10T09:53:31.216Z,32.88
2023-07-10T09:56:03.416Z,31.28
2023-07-10T09:58:35.111Z,31.15
2023-07-10T10:01:06.956Z,32.56
2023-07-10T10:03:38.488Z,31.67
2023-07-10T10:06:10.469Z,32.49
2023-07-10T10:08:42.004Z,33.22
2023-07-10T10:11:13.998Z,32.81
2023-07-10T10:13:45.526Z,33.25
2023-07-10T10:16:17.465Z,33.49
2023-07-10T10:18:49.342Z,33.13
2023-07-10T10:21:20.938Z,33.90
2023-07-10T10:23:52.798Z,33.03
2023-07-10T10:26:24.314Z,31.78
2023-07-10T10:28:56.171Z,31.96
2023-07-10T10:31:27.774Z,31.32
2023-07-10T10:33:59.528Z,31.65
2023-07-10T10:36:31.023Z,32.07
2023-07-10T10:39:02.910Z,31.78
2023-07-10T10:41:34.418Z,31.49
2023-07-10T10:44:06.172Z,31.43
2023-07-10T10:46:37.722Z,32.00
2023-07-10T10:49:09.282Z,32.43
2023-07-10T10:51:40.795Z,31.69
2023-07-10T10:54:19.791Z,32.62
2023-07-10T10:56:59.409Z,32.92
2023-07-10T10:59:30.921Z,33.09
2023-07-10T11:02:02.782Z,33.03
2023-07-10T11:04:34.284Z,32.54
2023-07-10T11:07:06.140Z,31.66
2023-07-10T11:09:37.697Z,31.73
2023-07-10T11:12:09.600Z,30.96
2023-07-10T11:14:41.098Z,30.57
2023-07-10T11:17:12.601Z,30.79
2023-07-10T11:19:44.110Z,30.71
2023-07-10T11:22:16.107Z,30.25
2023-07-10T11:24:47.594Z,30.71
2023-07-10T11:27:19.272Z,30.04
2023-07-10T11:29:50.754Z,30.22
2023-07-10T11:32:22.727Z,29.75
2023-07-10T11:34:58.875Z,29.49
2023-07-10T11:37:38.733Z,30.90
2023-07-10T11:40:10.759Z,31.56
2023-07-10T11:42:42.331Z,32.72
2023-07-10T11:45:14.255Z,33.15
2023-07-10T11:47:45.808Z,32.59
2023-07-10T11:50:17.685Z,32.75
2023-07-10T11:52:49.204Z,33.09
2023-07-10T11:55:20.727Z,32.67
2023-07-10T11:57:52.211Z,33.01
2023-07-10T12:00:23.894Z,32.16
2023-07-10T12:02:56.047Z,32.84
2023-07-10T12:05:28.139Z,32.48
2023-07-10T12:08:01.800Z,32.62
2023-07-10T12:10:34.665Z,32.76
2023-07-10T12:13:06.552Z,32.86
2023-07-10T12:15:38.045Z,32.98
2023-07-10T12:18:09.659Z,32.67
2023-07-10T12:20:41.211Z,32.79
2023-07-10T12:23:13.340Z,32.87
2023-07-10T12:25:44.840Z,32.75
2023-07-10T12:30:51.299Z,31.47
2023-07-10T12:33:23.086Z,33.03
2023-07-10T12:35:54.901Z,32.02
2023-07-10T12:38:26.458Z,32.62
2023-07-10T12:40:58.317Z,31.60
2023-07-10T12:43:29.856Z,32.31
2023-07-10T12:46:01.768Z,31.14
2023-07-10T12:48:33.379Z,30.63
2023-07-10T12:51:05.288Z,31.24
2023-07-10T12:53:36.800Z,30.51
2023-07-10T12:56:10.193Z,30.16
2023-07-10T12:58:42.023Z,30.16
2023-07-10T13:01:13.814Z,30.64
2023-07-10T13:03:45.742Z,31.56
2023-07-10T13:06:17.326Z,32.00
2023-07-10T13:08:49.162Z,29.80
2023-07-10T13:11:28.542Z,29.80
2023-07-10T13:14:14.581Z,30.63
2023-07-10T13:16:46.891Z,30.93
2023-07-10T13:19:18.592Z,31.49
2023-07-10T13:21:50.115Z,30.78
2023-07-10T13:24:21.925Z,31.14
2023-07-10T13:26:53.447Z,30.94
2023-07-10T13:29:25.328Z,29.87
2023-07-10T13:31:56.946Z,29.81
2023-07-10T13:34:28.542Z,29.72
2023-07-10T13:37:00.403Z,29.02
2023-07-10T13:39:31.906Z,29.60
2023-07-10T13:42:03.752Z,29.32
2023-07-10T13:44:35.230Z,29.46
2023-07-10T13:47:07.068Z,30.43
2023-07-10T13:49:38.565Z,31.16
2023-07-10T13:52:10.352Z,31.24
2023-07-10T13:54:41.905Z,29.99
2023-07-10T13:57:13.727Z,29.05
2023-07-10T13:59:45.541Z,28.53
2023-07-10T14:02:17.351Z,29.46
2023-07-10T14:04:49.213Z,28.57
2023-07-10T14:07:20.700Z,28.25
2023-07-10T14:09:52.674Z,28.25
2023-07-10T14:12:24.531Z,28.73
2023-07-10T14:14:57.313Z,28.90
2023-07-10T14:17:28.844Z,28.52
2023-07-10T14:20:00.734Z,27.79
2023-07-10T14:22:32.220Z,27.91
2023-07-10T14:25:04.112Z,28.44
2023-07-10T14:27:36.080Z,28.53
2023-07-10T14:30:07.919Z,28.81
2023-07-10T14:32:39.488Z,28.37
2023-07-10T14:35:11.006Z,29.39
2023-07-10T14:37:42.588Z,29.62
2023-07-10T14:40:14.095Z,29.81
2023-07-10T14:42:45.608Z,30.02
2023-07-10T14:45:17.125Z,29.86
2023-07-10T14:47:48.999Z,29.73
2023-07-10T14:50:20.505Z,30.14
2023-07-10T14:52:52.011Z,29.99
2023-07-10T14:55:23.810Z,29.93
2023-07-10T14:57:55.323Z,29.49
2023-07-10T15:00:27.151Z,29.40
2023-07-10T15:02:58.700Z,30.57
2023-07-10T15:05:30.481Z,29.37
2023-07-10T15:08:01.973Z,29.74
2023-07-10T15:10:33.747Z,30.06
2023-07-10T15:13:05.228Z,30.02
2023-07-10T15:15:37.012Z,29.26
2023-07-10T15:18:08.537Z,29.13
2023-07-10T15:20:40.115Z,28.93
2023-07-10T15:23:11.631Z,28.73
2023-07-10T15:25:43.161Z,29.46
2023-07-10T15:28:15.009Z,29.91
2023-07-10T15:30:46.515Z,28.85
2023-07-10T15:33:18.286Z,28.43
2023-07-10T15:35:49.764Z,28.46
2023-07-10T15:38:21.518Z,28.56
2023-07-10T15:40:53.054Z,28.59
2023-07-10T15:43:25.478Z,29.65
2023-07-10T15:45:57.009Z,30.51
2023-07-10T15:48:29.035Z,30.91
2023-07-10T15:51:00.575Z,31.03
2023-07-10T15:53:32.441Z,31.20
2023-07-10T15:56:04.268Z,30.45
2023-07-10T15:58:36.138Z,30.24
2023-07-10T16:01:08.166Z,30.25
2023-07-10T16:03:39.939Z,29.56
2023-07-10T16:06:11.777Z,29.48
2023-07-10T16:08:43.276Z,28.66
2023-07-10T16:11:14.961Z,28.68
2023-07-10T16:13:46.641Z,28.77
2023-07-10T16:16:18.736Z,28.84
2023-07-10T16:18:53.306Z,28.99
2023-07-10T16:21:25.141Z,28.32
2023-07-10T16:23:56.632Z,28.47
2023-07-10T16:26:28.535Z,28.45
2023-07-10T16:29:00.213Z,28.48
2023-07-10T16:31:31.754Z,28.27
2023-07-10T16:34:03.874Z,28.27
2023-07-10T16:36:35.395Z,28.21
2023-07-10T16:39:07.276Z,27.99
2023-07-10T16:41:38.837Z,27.54
2023-07-10T16:44:10.734Z,27.55
2023-07-10T16:46:42.319Z,27.23
2023-07-10T16:49:13.881Z,27.04
2023-07-10T16:51:45.552Z,27.09
2023-07-10T16:54:17.461Z,27.14
2023-07-10T16:56:49.173Z,27.10
2023-07-10T16:59:20.673Z,27.08
2023-07-10T17:01:52.593Z,27.00
2023-07-10T17:04:24.112Z,26.61
2023-07-10T17:06:55.612Z,26.62
2023-07-10T17:09:27.099Z,26.76
2023-07-10T17:11:58.921Z,26.75
2023-07-10T17:14:30.450Z,26.74
2023-07-10T17:17:02.335Z,26.76
2023-07-10T17:19:33.922Z,26.92
2023-07-10T17:22:05.559Z,26.91
2023-07-10T17:24:37.214Z,26.83
2023-07-10T17:27:09.027Z,26.67
2023-07-10T17:29:40.529Z,26.86
2023-07-10T17:32:13.136Z,26.73
2023-07-10T17:34:44.737Z,26.74
2023-07-10T17:37:16.379Z,26.46
2023-07-10T17:39:48.358Z,26.31
2023-07-10T17:42:19.860Z,26.30
2023-07-10T17:44:51.587Z,26.09
2023-07-10T17:47:23.128Z,26.12
2023-07-10T17:49:55.291Z,26.20
2023-07-10T17:52:26.894Z,26.25
2023-07-10T17:54:58.835Z,26.25
2023-07-10T17:57:30.699Z,26.23
2023-07-10T18:00:02.227Z,26.17
2023-07-10T18:02:36.662Z,26.12
2023-07-10T18:05:08.309Z,26.18
2023-07-10T18:07:39.866Z,25.99
2023-07-10T18:10:11.378Z,25.92
2023-07-10T18:12:42.883Z,26.01
2023-07-10T18:15:14.387Z,25.96
2023-07-10T18:17:46.042Z,25.78
2023-07-10T18:20:17.659Z,25.92
2023-07-10T18:22:49.188Z,25.80
2023-07-10T18:25:21.062Z,25.69
2023-07-10T18:27:52.574Z,25.58
2023-07-10T18:30:24.286Z,25.44
2023-07-10T18:32:55.801Z,25.36
2023-07-10T18:35:27.775Z,25.42
2023-07-10T18:37:59.273Z,25.30
2023-07-10T18:40:31.130Z,25.22
2023-07-10T18:43:02.661Z,25.20
2023-07-10T18:45:34.515Z,25.01
2023-07-10T18:48:06.069Z,24.97
2023-07-10T18:50:37.597Z,24.98
2023-07-10T18:53:09.099Z,24.82
2023-07-10T18:55:40.685Z,24.69
2023-07-10T18:58:12.375Z,24.75
2023-07-10T19:00:43.906Z,24.65
2023-07-10T19:03:15.836Z,24.59
2023-07-10T19:05:47.366Z,24.61
2023-07-10T19:08:18.887Z,24.58
2023-07-10T19:10:50.368Z,24.45
2023-07-10T19:13:22.238Z,24.37
2023-07-10T19:15:53.769Z,24.31
2023-07-10T19:18:25.496Z,24.23
2023-07-10T19:20:57.363Z,24.14
2023-07-10T19:23:28.965Z,24.05
2023-07-10T19:26:00.493Z,24.01
2023-07-10T19:28:32.583Z,23.91
2023-07-10T19:31:04.825Z,23.80
2023-07-10T19:33:36.970Z,23.64
2023-07-10T19:36:08.807Z,23.66
2023-07-10T19:38:40.288Z,23.60
2023-07-10T19:41:11.945Z,23.52
2023-07-10T19:43:43.461Z,23.48
2023-07-10T19:46:15.344Z,23.41
2023-07-10T19:48:46.875Z,23.39
2023-07-10T19:51:18.877Z,23.35
2023-07-10T19:53:50.411Z,23.29
2023-07-10T19:56:22.275Z,23.24
2023-07-10T19:58:53.786Z,23.19
2023-07-10T20:01:25.741Z,23.11
2023-07-10T20:03:57.278Z,23.09
2023-07-10T20:06:29.194Z,22.97
2023-07-10T20:09:00.953Z,22.94
2023-07-10T20:11:32.459Z,22.82
2023-07-10T20:14:04.367Z,22.81
2023-07-10T20:16:36.079Z,22.73
2023-07-10T20:19:08.219Z,22.66
2023-07-10T20:21:39.747Z,22.66
2023-07-10T20:24:11.587Z,22.60
2023-07-10T20:26:43.068Z,22.52
2023-07-10T20:29:14.736Z,22.47
2023-07-10T20:31:46.209Z,22.45
2023-07-10T20:34:18.147Z,22.47
2023-07-10T20:36:49.693Z,22.43
2023-07-10T20:39:21.197Z,22.39
2023-07-10T20:41:55.662Z,22.28
2023-07-10T20:44:27.148Z,22.19
2023-07-10T20:46:59.027Z,22.09
2023-07-10T20:49:30.734Z,22.04
2023-07-10T20:52:05.192Z,22.01
2023-07-10T20:54:36.687Z,21.98
2023-07-10T20:57:08.386Z,21.96
2023-07-10T20:59:39.921Z,21.91
2023-07-10T21:02:11.783Z,21.84
2023-07-10T21:04:43.357Z,21.78
2023-07-10T21:07:14.849Z,21.65
2023-07-10T21:09:47.823Z,21.62
2023-07-10T21:12:19.472Z,21.52
2023-07-10T21:14:51.185Z,21.49
2023-07-10T21:17:22.687Z,21.53
2023-07-10T21:19:54.308Z,21.49
2023-07-10T21:22:25.801Z,21.51
2023-07-10T21:24:57.533Z,21.45
2023-07-10T21:27:29.377Z,21.39
2023-07-10T21:30:01.474Z,21.38
2023-07-10T21:32:33.415Z,21.32
2023-07-10T21:35:05.052Z,21.30
2023-07-10T21:37:36.923Z,21.27
2023-07-10T21:40:08.432Z,21.26
2023-07-10T21:42:39.937Z,21.22
2023-07-10T21:45:11.445Z,21.25
2023-07-10T21:47:42.975Z,21.24
2023-07-10T21:50:14.500Z,21.22
2023-07-10T21:52:46.000Z,21.23
2023-07-10T21:55:17.613Z,21.19
2023-07-10T21:57:49.108Z,21.18
2023-07-10T22:00:21.069Z,21.15
2023-07-10T22:02:52.670Z,21.14
2023-07-10T22:05:24.729Z,21.11
2023-07-10T22:07:56.223Z,21.08
2023-07-10T22:10:28.078Z,21.08
2023-07-10T22:12:59.584Z,21.03
2023-07-10T22:15:31.359Z,21.02
2023-07-10T22:18:02.864Z,21.03
2023-07-10T22:20:34.724Z,21.02
2023-07-10T22:23:06.568Z,20.99
2023-07-10T22:25:38.079Z,20.98
2023-07-10T22:28:09.774Z,20.96
2023-07-10T22:30:41.279Z,20.90
2023-07-10T22:33:12.951Z,20.89
2023-07-10T22:35:44.484Z,20.87
2023-07-10T22:38:16.341Z,20.87
2023-07-10T22:40:47.827Z,20.85
2023-07-10T22:43:19.721Z,20.83
2023-07-10T22:45:51.258Z,20.84
2023-07-10T22:48:22.773Z,20.80
2023-07-10T22:50:54.280Z,20.77
2023-07-10T22:53:26.201Z,20.73
2023-07-10T22:55:58.010Z,20.73
2023-07-10T22:58:30.076Z,20.72
2023-07-10T23:01:01.975Z,20.67
2023-07-10T23:03:33.588Z,20.58
2023-07-10T23:06:05.523Z,20.44
2023-07-10T23:08:37.184Z,20.38
2023-07-10T23:11:09.008Z,20.32
2023-07-10T23:13:40.570Z,20.29
2023-07-10T23:16:12.436Z,20.25
2023-07-10T23:18:44.000Z,20.23
2023-07-10T23:21:16.003Z,20.21
2023-07-10T23:23:47.523Z,20.19
2023-07-10T23:26:19.389Z,20.07
2023-07-10T23:28:51.332Z,20.03
2023-07-10T23:31:22.907Z,19.93
2023-07-10T23:33:54.870Z,19.81
2023-07-10T23:36:26.412Z,19.73
2023-07-10T23:38:58.293Z,19.66
2023-07-10T23:41:29.829Z,19.60
2023-07-10T23:44:01.720Z,19.56
2023-07-10T23:46:33.234Z,19.43
2023-07-10T23:49:05.250Z,19.39
2023-07-10T23:51:36.762Z,19.43
2023-07-10T23:54:08.654Z,19.38
2023-07-10T23:56:40.167Z,19.32
2023-07-10T23:59:11.655Z,19.28
